sensor_id;sensor_type;location;lat;lon;timestamp;temperature;humidity
47482;DHT22;33219;47.410;9.730;2024-03-06T00:02:21;4.50;99.90
47482;DHT22;33219;47.410;9.730;2024-03-06T00:04:49;4.50;99.90
47482;DHT22;33219;47.410;9.730;2024-03-06T00:07:19;4.50;99.90
47482;DHT22;33219;47.410;9.730;2024-03-06T00:09:47;4.50;99.90
47482;DHT22;33219;47.410;9.730;2024-03-06T00:12:14;4.50;99.90
47482;DHT22;33219;47.410;9.730;2024-03-06T00:14:42;4.50;99.90
47482;DHT22;33219;47.410;9.730;2024-03-06T00:17:10;4.40;99.90
47482;DHT22;33219;47.410;9.730;2024-03-06T00:19:37;4.40;99.90
47482;DHT22;33219;47.410;9.730;2024-03-06T00:22:05;4.40;99.90
47482;DHT22;33219;47.410;9.730;2024-03-06T00:24:33;4.40;99.90
47482;DHT22;33219;47.410;9.730;2024-03-06T00:27:01;4.30;99.90
47482;DHT22;33219;47.410;9.730;2024-03-06T00:29:31;4.30;99.90
47482;DHT22;33219;47.410;9.730;2024-03-06T00:31:58;4.20;99.90
47482;DHT22;33219;47.410;9.730;2024-03-06T00:34:26;4.20;99.90
47482;DHT22;33219;47.410;9.730;2024-03-06T00:36:53;4.20;99.90
47482;DHT22;33219;47.410;9.730;2024-03-06T00:39:21;4.30;99.90
47482;DHT22;33219;47.410;9.730;2024-03-06T00:41:49;4.20;99.90
47482;DHT22;33219;47.410;9.730;2024-03-06T00:44:16;4.20;99.90
47482;DHT22;33219;47.410;9.730;2024-03-06T00:46:44;4.20;99.90
47482;DHT22;33219;47.410;9.730;2024-03-06T00:49:11;4.20;99.90
47482;DHT22;33219;47.410;9.730;2024-03-06T00:51:39;4.30;99.90
47482;DHT22;33219;47.410;9.730;2024-03-06T00:54:06;4.30;99.90
47482;DHT22;33219;47.410;9.730;2024-03-06T00:56:38;4.20;99.90
47482;DHT22;33219;47.410;9.730;2024-03-06T00:59:06;4.20;99.90
47482;DHT22;33219;47.410;9.730;2024-03-06T01:01:33;4.20;99.90
47482;DHT22;33219;47.410;9.730;2024-03-06T01:04:01;4.20;99.90
47482;DHT22;33219;47.410;9.730;2024-03-06T01:06:28;4.20;99.90
47482;DHT22;33219;47.410;9.730;2024-03-06T01:08:56;4.20;99.90
47482;DHT22;33219;47.410;9.730;2024-03-06T01:11:25;4.20;99.90
47482;DHT22;33219;47.410;9.730;2024-03-06T01:13:54;4.30;99.90
47482;DHT22;33219;47.410;9.730;2024-03-06T01:16:22;4.20;99.90
47482;DHT22;33219;47.410;9.730;2024-03-06T01:18:49;4.30;99.90
47482;DHT22;33219;47.410;9.730;2024-03-06T01:21:17;4.30;99.90
47482;DHT22;33219;47.410;9.730;2024-03-06T01:23:44;4.30;99.90
47482;DHT22;33219;47.410;9.730;2024-03-06T01:26:12;4.30;99.90
47482;DHT22;33219;47.410;9.730;2024-03-06T01:28:40;4.30;99.90
47482;DHT22;33219;47.410;9.730;2024-03-06T01:31:07;4.30;99.90
47482;DHT22;33219;47.410;9.730;2024-03-06T01:33:35;4.30;99.90
47482;DHT22;33219;47.410;9.730;2024-03-06T01:36:02;4.30;99.90
47482;DHT22;33219;47.410;9.730;2024-03-06T01:38:30;4.30;99.90
47482;DHT22;33219;47.410;9.730;2024-03-06T01:40:58;4.30;99.90
47482;DHT22;33219;47.410;9.730;2024-03-06T01:43:26;4.30;99.90
47482;DHT22;33219;47.410;9.730;2024-03-06T01:45:54;4.30;99.90
47482;DHT22;33219;47.410;9.730;2024-03-06T01:48:24;4.30;99.90
47482;DHT22;33219;47.410;9.730;2024-03-06T01:50:59;4.20;99.90
47482;DHT22;33219;47.410;9.730;2024-03-06T01:53:23;4.20;99.90
47482;DHT22;33219;47.410;9.730;2024-03-06T01:55:53;4.20;99.90
47482;DHT22;33219;47.410;9.730;2024-03-06T01:58:22;4.20;99.90
47482;DHT22;33219;47.410;9.730;2024-03-06T02:00:51;4.20;99.90
47482;DHT22;33219;47.410;9.730;2024-03-06T02:03:19;4.30;99.90
47482;DHT22;33219;47.410;9.730;2024-03-06T02:05:48;4.20;99.90
47482;DHT22;33219;47.410;9.730;2024-03-06T02:08:16;4.20;99.90
47482;DHT22;33219;47.410;9.730;2024-03-06T02:10:47;4.20;99.90
47482;DHT22;33219;47.410;9.730;2024-03-06T02:13:14;4.20;99.90
47482;DHT22;33219;47.410;9.730;2024-03-06T02:15:44;4.20;99.90
47482;DHT22;33219;47.410;9.730;2024-03-06T02:18:12;4.20;99.90
47482;DHT22;33219;47.410;9.730;2024-03-06T02:20:39;4.20;99.90
47482;DHT22;33219;47.410;9.730;2024-03-06T02:23:07;4.20;99.90
47482;DHT22;33219;47.410;9.730;2024-03-06T02:25:35;4.20;99.90
47482;DHT22;33219;47.410;9.730;2024-03-06T02:28:02;4.20;99.90
47482;DHT22;33219;47.410;9.730;2024-03-06T02:30:30;4.20;99.90
47482;DHT22;33219;47.410;9.730;2024-03-06T02:32:59;4.20;99.90
47482;DHT22;33219;47.410;9.730;2024-03-06T02:35:27;4.20;99.90
47482;DHT22;33219;47.410;9.730;2024-03-06T02:37:55;4.10;99.90
47482;DHT22;33219;47.410;9.730;2024-03-06T02:40:23;4.10;99.90
47482;DHT22;33219;47.410;9.730;2024-03-06T02:42:51;4.10;99.90
47482;DHT22;33219;47.410;9.730;2024-03-06T02:45:18;3.90;99.90
47482;DHT22;33219;47.410;9.730;2024-03-06T02:47:46;3.90;99.90
47482;DHT22;33219;47.410;9.730;2024-03-06T02:50:13;3.80;99.90
47482;DHT22;33219;47.410;9.730;2024-03-06T02:52:41;3.80;99.90
47482;DHT22;33219;47.410;9.730;2024-03-06T02:55:09;3.80;99.90
47482;DHT22;33219;47.410;9.730;2024-03-06T02:57:37;3.70;99.90
47482;DHT22;33219;47.410;9.730;2024-03-06T03:00:05;3.70;99.90
47482;DHT22;33219;47.410;9.730;2024-03-06T03:02:34;3.60;99.90
47482;DHT22;33219;47.410;9.730;2024-03-06T03:05:02;3.50;99.90
47482;DHT22;33219;47.410;9.730;2024-03-06T03:07:31;3.50;99.90
47482;DHT22;33219;47.410;9.730;2024-03-06T03:09:58;3.50;99.90
47482;DHT22;33219;47.410;9.730;2024-03-06T03:12:26;3.30;99.90
47482;DHT22;33219;47.410;9.730;2024-03-06T03:14:54;3.30;99.90
47482;DHT22;33219;47.410;9.730;2024-03-06T03:17:21;3.30;99.90
47482;DHT22;33219;47.410;9.730;2024-03-06T03:19:49;3.20;99.90
47482;DHT22;33219;47.410;9.730;2024-03-06T03:22:16;3.10;99.90
47482;DHT22;33219;47.410;9.730;2024-03-06T03:24:44;3.10;99.90
47482;DHT22;33219;47.410;9.730;2024-03-06T03:27:11;3.00;99.90
47482;DHT22;33219;47.410;9.730;2024-03-06T03:29:39;3.00;99.90
47482;DHT22;33219;47.410;9.730;2024-03-06T03:32:07;2.90;99.90
47482;DHT22;33219;47.410;9.730;2024-03-06T03:34:35;2.80;99.90
47482;DHT22;33219;47.410;9.730;2024-03-06T03:37:02;2.80;99.90
47482;DHT22;33219;47.410;9.730;2024-03-06T03:39:30;2.80;99.90
47482;DHT22;33219;47.410;9.730;2024-03-06T03:41:58;2.70;99.90
47482;DHT22;33219;47.410;9.730;2024-03-06T03:44:25;2.70;99.90
47482;DHT22;33219;47.410;9.730;2024-03-06T03:46:53;2.70;99.90
47482;DHT22;33219;47.410;9.730;2024-03-06T03:49:20;2.70;99.90
47482;DHT22;33219;47.410;9.730;2024-03-06T03:51:48;2.70;99.90
47482;DHT22;33219;47.410;9.730;2024-03-06T03:54:15;2.60;99.90
47482;DHT22;33219;47.410;9.730;2024-03-06T03:56:43;2.60;99.90
47482;DHT22;33219;47.410;9.730;2024-03-06T03:59:10;2.60;99.90
47482;DHT22;33219;47.410;9.730;2024-03-06T04:01:38;2.60;99.90
47482;DHT22;33219;47.410;9.730;2024-03-06T04:04:06;2.60;99.90
47482;DHT22;33219;47.410;9.730;2024-03-06T04:06:34;2.60;99.90
47482;DHT22;33219;47.410;9.730;2024-03-06T04:09:02;2.60;99.90
47482;DHT22;33219;47.410;9.730;2024-03-06T04:11:31;2.60;99.90
47482;DHT22;33219;47.410;9.730;2024-03-06T04:14:02;2.60;99.90
47482;DHT22;33219;47.410;9.730;2024-03-06T04:16:30;2.50;99.90
47482;DHT22;33219;47.410;9.730;2024-03-06T04:18:57;2.60;99.90
47482;DHT22;33219;47.410;9.730;2024-03-06T04:21:25;2.50;99.90
47482;DHT22;33219;47.410;9.730;2024-03-06T04:23:52;2.50;99.90
47482;DHT22;33219;47.410;9.730;2024-03-06T04:26:21;2.50;99.90
47482;DHT22;33219;47.410;9.730;2024-03-06T04:28:48;2.50;99.90
47482;DHT22;33219;47.410;9.730;2024-03-06T04:31:16;2.50;99.90
47482;DHT22;33219;47.410;9.730;2024-03-06T04:33:43;2.50;99.90
47482;DHT22;33219;47.410;9.730;2024-03-06T04:36:11;2.50;99.90
47482;DHT22;33219;47.410;9.730;2024-03-06T04:38:38;2.50;99.90
47482;DHT22;33219;47.410;9.730;2024-03-06T04:41:06;2.40;99.90
47482;DHT22;33219;47.410;9.730;2024-03-06T04:43:34;2.40;99.90
47482;DHT22;33219;47.410;9.730;2024-03-06T04:46:01;2.30;99.90
47482;DHT22;33219;47.410;9.730;2024-03-06T04:48:29;2.30;99.90
47482;DHT22;33219;47.410;9.730;2024-03-06T04:50:57;2.40;99.90
47482;DHT22;33219;47.410;9.730;2024-03-06T04:53:24;2.30;99.90
47482;DHT22;33219;47.410;9.730;2024-03-06T04:55:52;2.30;99.90
47482;DHT22;33219;47.410;9.730;2024-03-06T04:58:19;2.30;99.90
47482;DHT22;33219;47.410;9.730;2024-03-06T05:00:47;2.30;99.90
47482;DHT22;33219;47.410;9.730;2024-03-06T05:03:14;2.30;99.90
47482;DHT22;33219;47.410;9.730;2024-03-06T05:05:42;2.30;99.90
47482;DHT22;33219;47.410;9.730;2024-03-06T05:08:09;2.40;99.90
47482;DHT22;33219;47.410;9.730;2024-03-06T05:10:37;2.40;99.90
47482;DHT22;33219;47.410;9.730;2024-03-06T05:13:05;2.40;99.90
47482;DHT22;33219;47.410;9.730;2024-03-06T05:15:32;2.50;99.90
47482;DHT22;33219;47.410;9.730;2024-03-06T05:18:00;2.50;99.90
47482;DHT22;33219;47.410;9.730;2024-03-06T05:20:28;2.50;99.90
47482;DHT22;33219;47.410;9.730;2024-03-06T05:22:57;2.50;99.90
47482;DHT22;33219;47.410;9.730;2024-03-06T05:25:25;2.50;99.90
47482;DHT22;33219;47.410;9.730;2024-03-06T05:27:53;2.50;99.90
47482;DHT22;33219;47.410;9.730;2024-03-06T05:30:20;2.50;99.90
47482;DHT22;33219;47.410;9.730;2024-03-06T05:32:48;2.50;99.90
47482;DHT22;33219;47.410;9.730;2024-03-06T05:35:16;2.50;99.90
47482;DHT22;33219;47.410;9.730;2024-03-06T05:37:44;2.50;99.90
47482;DHT22;33219;47.410;9.730;2024-03-06T05:40:12;2.60;99.90
47482;DHT22;33219;47.410;9.730;2024-03-06T05:42:40;2.60;99.90
47482;DHT22;33219;47.410;9.730;2024-03-06T05:45:09;2.60;99.90
47482;DHT22;33219;47.410;9.730;2024-03-06T05:47:39;2.60;99.90
47482;DHT22;33219;47.410;9.730;2024-03-06T05:50:08;2.60;99.90
47482;DHT22;33219;47.410;9.730;2024-03-06T05:52:37;2.60;99.90
47482;DHT22;33219;47.410;9.730;2024-03-06T05:55:05;2.60;99.90
47482;DHT22;33219;47.410;9.730;2024-03-06T05:57:36;2.60;99.90
47482;DHT22;33219;47.410;9.730;2024-03-06T06:00:04;2.60;99.90
47482;DHT22;33219;47.410;9.730;2024-03-06T06:02:33;2.60;99.90
47482;DHT22;33219;47.410;9.730;2024-03-06T06:05:00;2.60;99.90
47482;DHT22;33219;47.410;9.730;2024-03-06T06:07:28;2.50;99.90
47482;DHT22;33219;47.410;9.730;2024-03-06T06:09:55;2.50;99.90
47482;DHT22;33219;47.410;9.730;2024-03-06T06:12:23;2.50;99.90
47482;DHT22;33219;47.410;9.730;2024-03-06T06:14:52;2.50;99.90
47482;DHT22;33219;47.410;9.730;2024-03-06T06:17:19;2.60;99.90
47482;DHT22;33219;47.410;9.730;2024-03-06T06:19:47;2.60;99.90
47482;DHT22;33219;47.410;9.730;2024-03-06T06:22:14;2.60;99.90
47482;DHT22;33219;47.410;9.730;2024-03-06T06:24:42;2.60;99.90
47482;DHT22;33219;47.410;9.730;2024-03-06T06:27:10;2.60;99.90
47482;DHT22;33219;47.410;9.730;2024-03-06T06:29:37;2.60;99.90
47482;DHT22;33219;47.410;9.730;2024-03-06T06:32:05;2.60;99.90
47482;DHT22;33219;47.410;9.730;2024-03-06T06:34:35;2.50;99.90
47482;DHT22;33219;47.410;9.730;2024-03-06T06:37:14;2.50;99.90
47482;DHT22;33219;47.410;9.730;2024-03-06T06:40:04;2.50;99.90
47482;DHT22;33219;47.410;9.730;2024-03-06T06:42:23;2.60;99.90
47482;DHT22;33219;47.410;9.730;2024-03-06T06:45:17;2.60;99.90
47482;DHT22;33219;47.410;9.730;2024-03-06T06:48:00;2.60;99.90
47482;DHT22;33219;47.410;9.730;2024-03-06T06:50:51;2.60;99.90
47482;DHT22;33219;47.410;9.730;2024-03-06T06:53:17;2.60;99.90
47482;DHT22;33219;47.410;9.730;2024-03-06T06:55:57;2.60;99.90
47482;DHT22;33219;47.410;9.730;2024-03-06T06:58:35;2.70;99.90
47482;DHT22;33219;47.410;9.730;2024-03-06T07:04:12;2.60;99.90
47482;DHT22;33219;47.410;9.730;2024-03-06T07:06:49;2.70;99.90
47482;DHT22;33219;47.410;9.730;2024-03-06T07:17:31;2.70;99.90
47482;DHT22;33219;47.410;9.730;2024-03-06T07:22:52;2.80;99.90
47482;DHT22;33219;47.410;9.730;2024-03-06T07:25:23;2.80;99.90
47482;DHT22;33219;47.410;9.730;2024-03-06T07:28:06;2.80;99.90
47482;DHT22;33219;47.410;9.730;2024-03-06T07:33:13;2.80;99.90
47482;DHT22;33219;47.410;9.730;2024-03-06T07:35:51;2.90;99.90
47482;DHT22;33219;47.410;9.730;2024-03-06T07:43:53;2.90;99.90
47482;DHT22;33219;47.410;9.730;2024-03-06T07:46:24;2.90;99.90
47482;DHT22;33219;47.410;9.730;2024-03-06T07:48:54;2.90;99.90
47482;DHT22;33219;47.410;9.730;2024-03-06T07:51:26;2.90;99.90
47482;DHT22;33219;47.410;9.730;2024-03-06T07:54:05;2.90;99.90
47482;DHT22;33219;47.410;9.730;2024-03-06T07:56:47;2.90;99.90
47482;DHT22;33219;47.410;9.730;2024-03-06T07:59:32;3.00;99.90
47482;DHT22;33219;47.410;9.730;2024-03-06T08:02:20;2.90;99.90
47482;DHT22;33219;47.410;9.730;2024-03-06T08:04:55;3.00;99.90
47482;DHT22;33219;47.410;9.730;2024-03-06T08:07:40;3.10;99.90
47482;DHT22;33219;47.410;9.730;2024-03-06T08:10:14;3.10;99.90
47482;DHT22;33219;47.410;9.730;2024-03-06T08:12:52;3.10;99.90
47482;DHT22;33219;47.410;9.730;2024-03-06T08:15:30;3.10;99.90
47482;DHT22;33219;47.410;9.730;2024-03-06T08:21:35;3.20;99.90
47482;DHT22;33219;47.410;9.730;2024-03-06T08:33:04;3.20;99.90
47482;DHT22;33219;47.410;9.730;2024-03-06T08:35:44;3.20;99.90
47482;DHT22;33219;47.410;9.730;2024-03-06T08:38:21;3.20;99.90
47482;DHT22;33219;47.410;9.730;2024-03-06T08:40:56;3.30;99.90
47482;DHT22;33219;47.410;9.730;2024-03-06T08:43:33;3.40;99.90
47482;DHT22;33219;47.410;9.730;2024-03-06T08:46:07;3.50;99.90
47482;DHT22;33219;47.410;9.730;2024-03-06T08:48:42;3.40;99.90
47482;DHT22;33219;47.410;9.730;2024-03-06T08:51:19;3.50;99.90
47482;DHT22;33219;47.410;9.730;2024-03-06T08:56:42;3.70;99.90
47482;DHT22;33219;47.410;9.730;2024-03-06T08:59:19;3.60;99.90
47482;DHT22;33219;47.410;9.730;2024-03-06T09:02:11;3.60;99.90
47482;DHT22;33219;47.410;9.730;2024-03-06T09:04:34;3.50;99.90
47482;DHT22;33219;47.410;9.730;2024-03-06T09:07:18;3.50;99.90
47482;DHT22;33219;47.410;9.730;2024-03-06T09:12:58;3.40;99.90
47482;DHT22;33219;47.410;9.730;2024-03-06T09:15:34;3.50;99.90
47482;DHT22;33219;47.410;9.730;2024-03-06T09:18:11;3.50;99.90
47482;DHT22;33219;47.410;9.730;2024-03-06T09:20:38;3.40;99.90
47482;DHT22;33219;47.410;9.730;2024-03-06T09:23:19;3.40;99.90
47482;DHT22;33219;47.410;9.730;2024-03-06T09:31:30;3.40;99.90
47482;DHT22;33219;47.410;9.730;2024-03-06T09:36:57;3.40;99.90
47482;DHT22;33219;47.410;9.730;2024-03-06T09:39:30;3.30;99.90
47482;DHT22;33219;47.410;9.730;2024-03-06T09:42:02;3.40;99.90
47482;DHT22;33219;47.410;9.730;2024-03-06T09:44:37;3.30;99.90
47482;DHT22;33219;47.410;9.730;2024-03-06T09:47:15;3.30;99.90
47482;DHT22;33219;47.410;9.730;2024-03-06T09:49:50;3.30;99.90
47482;DHT22;33219;47.410;9.730;2024-03-06T09:52:38;3.40;99.90
47482;DHT22;33219;47.410;9.730;2024-03-06T09:55:15;3.40;99.90
47482;DHT22;33219;47.410;9.730;2024-03-06T09:57:52;3.30;99.90
47482;DHT22;33219;47.410;9.730;2024-03-06T10:00:26;3.30;99.90
47482;DHT22;33219;47.410;9.730;2024-03-06T10:03:22;3.20;99.90
47482;DHT22;33219;47.410;9.730;2024-03-06T10:06:01;3.20;99.90
47482;DHT22;33219;47.410;9.730;2024-03-06T10:08:36;3.30;99.90
47482;DHT22;33219;47.410;9.730;2024-03-06T10:13:46;3.40;99.90
47482;DHT22;33219;47.410;9.730;2024-03-06T10:16:21;3.40;99.90
47482;DHT22;33219;47.410;9.730;2024-03-06T10:19:21;3.50;99.90
47482;DHT22;33219;47.410;9.730;2024-03-06T10:21:55;3.40;99.90
47482;DHT22;33219;47.410;9.730;2024-03-06T10:24:32;3.40;99.90
47482;DHT22;33219;47.410;9.730;2024-03-06T10:27:19;3.40;99.90
47482;DHT22;33219;47.410;9.730;2024-03-06T10:30:14;3.40;99.90
47482;DHT22;33219;47.410;9.730;2024-03-06T10:32:52;3.40;99.90
47482;DHT22;33219;47.410;9.730;2024-03-06T10:35:29;3.40;99.90
47482;DHT22;33219;47.410;9.730;2024-03-06T10:38:09;3.40;99.90
47482;DHT22;33219;47.410;9.730;2024-03-06T10:43:47;3.50;99.90
47482;DHT22;33219;47.410;9.730;2024-03-06T11:04:31;3.60;99.90
47482;DHT22;33219;47.410;9.730;2024-03-06T11:07:35;3.60;99.90
47482;DHT22;33219;47.410;9.730;2024-03-06T11:09:54;3.70;99.90
47482;DHT22;33219;47.410;9.730;2024-03-06T11:12:54;3.70;99.90
47482;DHT22;33219;47.410;9.730;2024-03-06T11:29:32;4.00;99.90
47482;DHT22;33219;47.410;9.730;2024-03-06T11:32:10;3.90;99.90
47482;DHT22;33219;47.410;9.730;2024-03-06T11:34:44;3.90;99.90
47482;DHT22;33219;47.410;9.730;2024-03-06T11:37:33;3.90;99.90
47482;DHT22;33219;47.410;9.730;2024-03-06T11:40:07;3.90;99.90
47482;DHT22;33219;47.410;9.730;2024-03-06T11:42:41;3.90;99.90
47482;DHT22;33219;47.410;9.730;2024-03-06T11:45:15;3.90;99.90
47482;DHT22;33219;47.410;9.730;2024-03-06T11:48:03;3.90;99.90
47482;DHT22;33219;47.410;9.730;2024-03-06T11:50:37;3.70;99.90
47482;DHT22;33219;47.410;9.730;2024-03-06T11:53:15;3.80;99.90
47482;DHT22;33219;47.410;9.730;2024-03-06T11:56:05;3.70;99.90
47482;DHT22;33219;47.410;9.730;2024-03-06T11:58:40;3.60;99.90
47482;DHT22;33219;47.410;9.730;2024-03-06T12:01:21;3.70;99.90
47482;DHT22;33219;47.410;9.730;2024-03-06T12:06:26;3.60;99.90
47482;DHT22;33219;47.410;9.730;2024-03-06T12:09:19;3.60;99.90
47482;DHT22;33219;47.410;9.730;2024-03-06T12:11:58;3.80;99.90
47482;DHT22;33219;47.410;9.730;2024-03-06T12:14:37;3.90;99.90
47482;DHT22;33219;47.410;9.730;2024-03-06T12:17:20;4.00;99.90
47482;DHT22;33219;47.410;9.730;2024-03-06T12:19:54;4.20;99.90
47482;DHT22;33219;47.410;9.730;2024-03-06T12:22:27;4.10;99.90
47482;DHT22;33219;47.410;9.730;2024-03-06T12:25:06;4.20;99.90
47482;DHT22;33219;47.410;9.730;2024-03-06T12:27:36;4.10;99.90
47482;DHT22;33219;47.410;9.730;2024-03-06T12:30:31;4.20;99.90
47482;DHT22;33219;47.410;9.730;2024-03-06T12:33:03;4.10;99.90
47482;DHT22;33219;47.410;9.730;2024-03-06T12:35:32;4.10;99.90
47482;DHT22;33219;47.410;9.730;2024-03-06T12:38:14;4.00;99.90
47482;DHT22;33219;47.410;9.730;2024-03-06T12:40:43;3.90;99.90
47482;DHT22;33219;47.410;9.730;2024-03-06T12:45:53;3.90;99.90
47482;DHT22;33219;47.410;9.730;2024-03-06T12:48:30;3.90;99.90
47482;DHT22;33219;47.410;9.730;2024-03-06T12:51:02;4.00;99.90
47482;DHT22;33219;47.410;9.730;2024-03-06T12:53:34;4.00;99.90
47482;DHT22;33219;47.410;9.730;2024-03-06T12:58:49;4.10;99.90
47482;DHT22;33219;47.410;9.730;2024-03-06T13:01:17;4.10;99.90
47482;DHT22;33219;47.410;9.730;2024-03-06T13:03:46;4.30;99.90
47482;DHT22;33219;47.410;9.730;2024-03-06T13:06:16;4.30;99.90
47482;DHT22;33219;47.410;9.730;2024-03-06T13:08:43;4.10;99.90
47482;DHT22;33219;47.410;9.730;2024-03-06T13:11:11;4.20;99.90
47482;DHT22;33219;47.410;9.730;2024-03-06T13:13:39;4.10;99.90
47482;DHT22;33219;47.410;9.730;2024-03-06T13:16:09;4.00;99.90
47482;DHT22;33219;47.410;9.730;2024-03-06T13:18:38;4.00;99.90
47482;DHT22;33219;47.410;9.730;2024-03-06T13:21:05;4.00;99.90
47482;DHT22;33219;47.410;9.730;2024-03-06T13:23:34;4.00;99.90
47482;DHT22;33219;47.410;9.730;2024-03-06T13:26:03;4.00;99.90
47482;DHT22;33219;47.410;9.730;2024-03-06T13:28:31;4.00;99.90
47482;DHT22;33219;47.410;9.730;2024-03-06T13:30:59;4.00;99.90
47482;DHT22;33219;47.410;9.730;2024-03-06T13:33:26;3.80;99.90
47482;DHT22;33219;47.410;9.730;2024-03-06T13:35:55;3.80;99.90
47482;DHT22;33219;47.410;9.730;2024-03-06T13:38:23;3.80;99.90
47482;DHT22;33219;47.410;9.730;2024-03-06T13:40:50;3.70;99.90
47482;DHT22;33219;47.410;9.730;2024-03-06T13:43:18;3.70;99.90
47482;DHT22;33219;47.410;9.730;2024-03-06T13:45:50;3.80;99.90
47482;DHT22;33219;47.410;9.730;2024-03-06T13:48:18;3.90;99.90
47482;DHT22;33219;47.410;9.730;2024-03-06T13:50:47;3.80;99.90
47482;DHT22;33219;47.410;9.730;2024-03-06T13:53:15;3.90;99.90
47482;DHT22;33219;47.410;9.730;2024-03-06T13:55:43;3.90;99.90
47482;DHT22;33219;47.410;9.730;2024-03-06T13:58:11;4.00;99.90
47482;DHT22;33219;47.410;9.730;2024-03-06T14:00:43;4.10;99.90
47482;DHT22;33219;47.410;9.730;2024-03-06T14:03:11;3.90;99.90
47482;DHT22;33219;47.410;9.730;2024-03-06T14:05:39;3.90;99.90
47482;DHT22;33219;47.410;9.730;2024-03-06T14:08:07;4.10;99.90
47482;DHT22;33219;47.410;9.730;2024-03-06T14:10:36;3.90;99.90
47482;DHT22;33219;47.410;9.730;2024-03-06T14:13:05;3.90;99.90
47482;DHT22;33219;47.410;9.730;2024-03-06T14:15:35;3.90;99.90
47482;DHT22;33219;47.410;9.730;2024-03-06T14:18:03;4.00;99.90
47482;DHT22;33219;47.410;9.730;2024-03-06T14:20:30;4.10;99.90
47482;DHT22;33219;47.410;9.730;2024-03-06T14:22:58;4.10;99.90
47482;DHT22;33219;47.410;9.730;2024-03-06T14:25:26;4.20;99.90
47482;DHT22;33219;47.410;9.730;2024-03-06T14:27:53;4.20;99.90
47482;DHT22;33219;47.410;9.730;2024-03-06T14:30:22;4.30;99.90
47482;DHT22;33219;47.410;9.730;2024-03-06T14:32:50;4.20;99.90
47482;DHT22;33219;47.410;9.730;2024-03-06T14:35:17;4.10;99.90
47482;DHT22;33219;47.410;9.730;2024-03-06T14:37:45;4.10;99.90
47482;DHT22;33219;47.410;9.730;2024-03-06T14:40:12;4.20;99.90
47482;DHT22;33219;47.410;9.730;2024-03-06T14:42:40;4.20;99.90
47482;DHT22;33219;47.410;9.730;2024-03-06T14:45:08;4.20;99.90
47482;DHT22;33219;47.410;9.730;2024-03-06T14:47:36;4.20;99.90
47482;DHT22;33219;47.410;9.730;2024-03-06T14:50:04;4.20;99.90
47482;DHT22;33219;47.410;9.730;2024-03-06T14:52:32;4.20;99.90
47482;DHT22;33219;47.410;9.730;2024-03-06T14:55:01;4.20;99.90
47482;DHT22;33219;47.410;9.730;2024-03-06T14:57:30;4.10;99.90
47482;DHT22;33219;47.410;9.730;2024-03-06T14:59:57;4.10;99.90
47482;DHT22;33219;47.410;9.730;2024-03-06T15:02:25;4.10;99.90
47482;DHT22;33219;47.410;9.730;2024-03-06T15:04:52;3.90;99.90
47482;DHT22;33219;47.410;9.730;2024-03-06T15:07:20;3.80;99.90
47482;DHT22;33219;47.410;9.730;2024-03-06T15:09:47;3.70;99.90
47482;DHT22;33219;47.410;9.730;2024-03-06T15:12:15;3.70;99.90
47482;DHT22;33219;47.410;9.730;2024-03-06T15:14:42;3.70;99.90
47482;DHT22;33219;47.410;9.730;2024-03-06T15:17:10;3.70;99.90
47482;DHT22;33219;47.410;9.730;2024-03-06T15:19:38;3.70;99.90
47482;DHT22;33219;47.410;9.730;2024-03-06T15:22:06;3.80;99.90
47482;DHT22;33219;47.410;9.730;2024-03-06T15:24:34;3.80;99.90
47482;DHT22;33219;47.410;9.730;2024-03-06T15:27:01;3.90;99.90
47482;DHT22;33219;47.410;9.730;2024-03-06T15:29:29;3.80;99.90
47482;DHT22;33219;47.410;9.730;2024-03-06T15:32:01;3.90;99.90
47482;DHT22;33219;47.410;9.730;2024-03-06T15:34:26;3.80;99.90
47482;DHT22;33219;47.410;9.730;2024-03-06T15:36:53;3.80;99.90
47482;DHT22;33219;47.410;9.730;2024-03-06T15:39:21;3.80;99.90
47482;DHT22;33219;47.410;9.730;2024-03-06T15:41:49;3.70;99.90
47482;DHT22;33219;47.410;9.730;2024-03-06T15:44:16;3.70;99.90
47482;DHT22;33219;47.410;9.730;2024-03-06T15:46:44;3.60;99.90
47482;DHT22;33219;47.410;9.730;2024-03-06T15:49:23;3.60;99.90
47482;DHT22;33219;47.410;9.730;2024-03-06T15:51:53;3.60;99.90
47482;DHT22;33219;47.410;9.730;2024-03-06T15:54:21;3.60;99.90
47482;DHT22;33219;47.410;9.730;2024-03-06T15:56:49;3.60;99.90
47482;DHT22;33219;47.410;9.730;2024-03-06T15:59:17;3.50;99.90
47482;DHT22;33219;47.410;9.730;2024-03-06T16:01:44;3.50;99.90
47482;DHT22;33219;47.410;9.730;2024-03-06T16:04:12;3.50;99.90
47482;DHT22;33219;47.410;9.730;2024-03-06T16:06:40;3.50;99.90
47482;DHT22;33219;47.410;9.730;2024-03-06T16:09:07;3.60;99.90
47482;DHT22;33219;47.410;9.730;2024-03-06T16:11:40;3.60;99.90
47482;DHT22;33219;47.410;9.730;2024-03-06T16:14:07;3.60;99.90
47482;DHT22;33219;47.410;9.730;2024-03-06T16:16:35;3.50;99.90
47482;DHT22;33219;47.410;9.730;2024-03-06T16:19:03;3.50;99.90
47482;DHT22;33219;47.410;9.730;2024-03-06T16:21:31;3.50;99.90
47482;DHT22;33219;47.410;9.730;2024-03-06T16:23:58;3.50;99.90
47482;DHT22;33219;47.410;9.730;2024-03-06T16:26:30;3.50;99.90
47482;DHT22;33219;47.410;9.730;2024-03-06T16:28:58;3.50;99.90
47482;DHT22;33219;47.410;9.730;2024-03-06T16:31:28;3.50;99.90
47482;DHT22;33219;47.410;9.730;2024-03-06T16:33:56;3.50;99.90
47482;DHT22;33219;47.410;9.730;2024-03-06T16:36:23;3.40;99.90
47482;DHT22;33219;47.410;9.730;2024-03-06T16:38:51;3.30;99.90
47482;DHT22;33219;47.410;9.730;2024-03-06T16:41:19;3.30;99.90
47482;DHT22;33219;47.410;9.730;2024-03-06T16:43:46;3.30;99.90
47482;DHT22;33219;47.410;9.730;2024-03-06T16:46:16;3.30;99.90
47482;DHT22;33219;47.410;9.730;2024-03-06T16:48:43;3.30;99.90
47482;DHT22;33219;47.410;9.730;2024-03-06T16:51:18;3.30;99.90
47482;DHT22;33219;47.410;9.730;2024-03-06T16:53:47;3.20;99.90
47482;DHT22;33219;47.410;9.730;2024-03-06T16:56:15;3.30;99.90
47482;DHT22;33219;47.410;9.730;2024-03-06T16:58:43;3.20;99.90
47482;DHT22;33219;47.410;9.730;2024-03-06T17:01:11;3.20;99.90
47482;DHT22;33219;47.410;9.730;2024-03-06T17:03:38;3.10;99.90
47482;DHT22;33219;47.410;9.730;2024-03-06T17:06:06;3.10;99.90
47482;DHT22;33219;47.410;9.730;2024-03-06T17:08:33;3.10;99.90
47482;DHT22;33219;47.410;9.730;2024-03-06T17:11:01;3.10;99.90
47482;DHT22;33219;47.410;9.730;2024-03-06T17:13:29;3.00;99.90
47482;DHT22;33219;47.410;9.730;2024-03-06T17:15:57;3.00;99.90
47482;DHT22;33219;47.410;9.730;2024-03-06T17:18:24;3.00;99.90
47482;DHT22;33219;47.410;9.730;2024-03-06T17:20:52;3.00;99.90
47482;DHT22;33219;47.410;9.730;2024-03-06T17:23:19;2.90;99.90
47482;DHT22;33219;47.410;9.730;2024-03-06T17:25:53;2.80;99.90
47482;DHT22;33219;47.410;9.730;2024-03-06T17:28:16;2.80;99.90
47482;DHT22;33219;47.410;9.730;2024-03-06T17:30:45;2.80;99.90
47482;DHT22;33219;47.410;9.730;2024-03-06T17:33:12;2.80;99.90
47482;DHT22;33219;47.410;9.730;2024-03-06T17:35:43;2.70;99.90
47482;DHT22;33219;47.410;9.730;2024-03-06T17:38:15;2.70;99.90
47482;DHT22;33219;47.410;9.730;2024-03-06T17:40:43;2.70;99.90
47482;DHT22;33219;47.410;9.730;2024-03-06T17:43:12;2.70;99.90